createdAt,value
2018-01-30T00:00:24.641Z,6.62
2018-01-30T00:02:52.164Z,5.53
2018-01-30T00:05:19.752Z,3.97
2018-01-30T00:07:47.314Z,4.68
2018-01-30T00:10:14.862Z,6.60
2018-01-30T00:12:42.392Z,6.30
2018-01-30T00:15:09.964Z,7.47
2018-01-30T00:17:37.505Z,4.93
2018-01-30T00:20:05.090Z,5.45
2018-01-30T00:22:33.392Z,7.20
2018-01-30T00:25:01.156Z,7.40
2018-01-30T00:27:28.686Z,6.07
2018-01-30T00:29:56.279Z,4.47
2018-01-30T00:32:23.779Z,6.18
2018-01-30T00:34:51.391Z,6.15
2018-01-30T00:37:18.915Z,6.00
2018-01-30T00:39:47.269Z,5.80
2018-01-30T00:42:15.041Z,6.32
2018-01-30T00:44:42.615Z,3.50
2018-01-30T00:47:10.170Z,4.78
2018-01-30T00:49:37.741Z,5.65
2018-01-30T00:52:06.014Z,4.55
2018-01-30T00:54:33.534Z,4.72
2018-01-30T00:57:01.078Z,4.65
2018-01-30T00:59:28.676Z,6.90
2018-01-30T01:01:56.276Z,5.62
2018-01-30T01:04:24.016Z,6.65
2018-01-30T01:06:51.660Z,4.93
2018-01-30T01:09:19.261Z,5.60
2018-01-30T01:11:46.734Z,4.97
2018-01-30T01:14:14.250Z,5.55
2018-01-30T01:16:42.670Z,5.20
2018-01-30T01:19:10.222Z,6.07
2018-01-30T01:21:37.809Z,5.53
2018-01-30T01:24:05.470Z,5.30
2018-01-30T01:26:33.258Z,4.95
2018-01-30T01:29:00.821Z,4.20
2018-01-30T01:31:28.368Z,4.78
2018-01-30T01:33:55.918Z,4.75
2018-01-30T01:36:23.670Z,5.82
2018-01-30T01:38:51.214Z,6.20
2018-01-30T01:41:18.870Z,5.37
2018-01-30T01:43:46.591Z,5.30
2018-01-30T01:46:14.143Z,4.82
2018-01-30T01:48:41.665Z,5.10
2018-01-30T01:51:09.180Z,5.68
2018-01-30T01:53:36.690Z,5.90
2018-01-30T01:56:04.228Z,5.07
2018-01-30T01:58:31.788Z,5.32
2018-01-30T02:01:00.154Z,5.10
2018-01-30T02:03:27.727Z,6.03
2018-01-30T02:05:56.092Z,5.80
2018-01-30T02:08:23.632Z,4.15
2018-01-30T02:10:51.175Z,4.18
2018-01-30T02:13:18.717Z,6.65
2018-01-30T02:15:47.138Z,5.37
2018-01-30T02:18:15.324Z,6.00
2018-01-30T02:20:43.950Z,6.32
2018-01-30T02:23:11.561Z,5.65
2018-01-30T02:25:40.085Z,4.12
2018-01-30T02:28:07.882Z,6.55
2018-01-30T02:30:35.478Z,6.65
2018-01-30T02:33:03.836Z,4.90
2018-01-30T02:35:31.392Z,6.00
2018-01-30T02:37:58.968Z,6.62
2018-01-30T02:40:26.670Z,6.28
2018-01-30T02:42:54.263Z,6.10
2018-01-30T02:45:21.994Z,5.57
2018-01-30T02:47:49.539Z,7.57
2018-01-30T02:50:17.135Z,5.80
2018-01-30T02:52:44.691Z,7.55
2018-01-30T02:55:12.425Z,6.68
2018-01-30T02:57:40.062Z,5.95
2018-01-30T03:00:07.665Z,8.60
2018-01-30T03:02:35.311Z,7.03
2018-01-30T03:05:02.901Z,4.30
2018-01-30T03:07:30.487Z,5.72
2018-01-30T03:09:58.036Z,7.68
2018-01-30T03:12:25.596Z,5.53
2018-01-30T03:14:53.133Z,6.15
2018-01-30T03:17:20.679Z,5.78
2018-01-30T03:19:48.221Z,4.95
2018-01-30T03:22:15.755Z,5.30
2018-01-30T03:24:43.310Z,7.00
2018-01-30T03:27:10.786Z,5.07
2018-01-30T03:29:38.419Z,5.50
2018-01-30T03:32:05.984Z,6.20
2018-01-30T03:34:33.517Z,5.85
2018-01-30T03:37:01.153Z,5.97
2018-01-30T03:39:28.726Z,5.37
2018-01-30T03:41:56.260Z,6.80
2018-01-30T03:44:23.832Z,4.30
2018-01-30T03:46:51.386Z,6.30
2018-01-30T03:49:19.048Z,6.65
2018-01-30T03:51:47.383Z,6.25
2018-01-30T03:54:15.048Z,6.75
2018-01-30T03:56:42.607Z,7.00
2018-01-30T03:59:10.165Z,6.65
2018-01-30T04:01:38.518Z,6.60
2018-01-30T04:04:06.193Z,9.27
2018-01-30T04:06:33.754Z,6.35
2018-01-30T04:09:01.291Z,7.10
2018-01-30T04:11:28.902Z,7.10
2018-01-30T04:13:56.519Z,6.40
2018-01-30T04:16:24.178Z,5.85
2018-01-30T04:18:51.758Z,6.55
2018-01-30T04:21:19.312Z,7.28
2018-01-30T04:23:46.843Z,6.97
2018-01-30T04:26:14.413Z,5.40
2018-01-30T04:28:42.006Z,5.65
2018-01-30T04:31:09.600Z,6.43
2018-01-30T04:33:37.203Z,7.05
2018-01-30T04:36:04.809Z,8.13
2018-01-30T04:38:33.158Z,9.52
2018-01-30T04:41:00.729Z,6.03
2018-01-30T04:43:28.259Z,8.90
2018-01-30T04:45:55.838Z,7.37
2018-01-30T04:48:23.450Z,7.60
2018-01-30T04:50:51.009Z,6.15
2018-01-30T04:53:18.595Z,5.35
2018-01-30T04:55:46.286Z,7.60
2018-01-30T04:58:13.944Z,6.72
2018-01-30T05:00:41.471Z,6.85
2018-01-30T05:03:09.282Z,5.28
2018-01-30T05:05:36.854Z,7.03
2018-01-30T05:08:04.585Z,6.62
2018-01-30T05:10:32.226Z,7.95
2018-01-30T05:12:59.979Z,6.97
2018-01-30T05:15:27.547Z,7.97
2018-01-30T05:17:55.064Z,8.25
2018-01-30T05:20:23.447Z,7.40
2018-01-30T05:22:51.155Z,7.78
2018-01-30T05:25:18.853Z,9.05
2018-01-30T05:27:46.445Z,9.73
2018-01-30T05:30:13.933Z,10.02
2018-01-30T05:32:41.463Z,9.52
2018-01-30T05:35:09.117Z,7.75
2018-01-30T05:37:36.674Z,10.07
2018-01-30T05:40:04.253Z,8.75
2018-01-30T05:42:31.813Z,8.43
2018-01-30T05:45:00.463Z,8.00
2018-01-30T05:47:28.018Z,8.50
2018-01-30T05:49:56.313Z,9.95
2018-01-30T05:52:25.187Z,8.93
2018-01-30T05:54:52.989Z,9.52
2018-01-30T05:57:20.569Z,8.27
2018-01-30T05:59:48.149Z,8.68
2018-01-30T06:02:15.812Z,8.07
2018-01-30T06:04:43.346Z,6.70
2018-01-30T06:07:11.006Z,9.35
2018-01-30T06:09:38.629Z,10.18
2018-01-30T06:12:06.213Z,10.45
2018-01-30T06:14:33.785Z,9.00
2018-01-30T06:17:06.028Z,8.75
2018-01-30T06:19:33.753Z,9.35
2018-01-30T06:22:01.344Z,8.45
2018-01-30T06:24:28.890Z,9.07
2018-01-30T06:26:56.995Z,7.40
2018-01-30T06:29:24.562Z,7.80
2018-01-30T06:31:52.128Z,7.65
2018-01-30T06:34:19.688Z,8.07
2018-01-30T06:36:47.269Z,7.05
2018-01-30T06:39:14.879Z,9.60
2018-01-30T06:41:43.222Z,6.50
2018-01-30T06:44:10.920Z,7.80
2018-01-30T06:46:38.540Z,7.78
2018-01-30T06:49:06.291Z,8.60
2018-01-30T06:51:33.922Z,6.07
2018-01-30T06:54:01.644Z,8.27
2018-01-30T06:56:29.238Z,10.32
2018-01-30T06:58:57.504Z,9.20
2018-01-30T07:01:26.047Z,7.87
2018-01-30T07:03:53.733Z,8.38
2018-01-30T07:06:21.343Z,8.80
2018-01-30T07:08:48.849Z,9.98
2018-01-30T07:11:16.442Z,6.20
2018-01-30T07:13:44.130Z,7.20
2018-01-30T07:16:11.732Z,7.87
2018-01-30T07:18:39.220Z,7.25
2018-01-30T07:21:06.799Z,8.60
2018-01-30T07:23:34.494Z,9.60
2018-01-30T07:26:02.014Z,9.73
2018-01-30T07:28:29.706Z,9.60
2018-01-30T07:30:57.303Z,10.45
2018-01-30T07:33:24.872Z,13.10
2018-01-30T07:35:52.417Z,9.73
2018-01-30T07:38:19.957Z,9.07
2018-01-30T07:40:47.496Z,10.77
2018-01-30T07:43:15.085Z,9.65
2018-01-30T07:45:42.934Z,10.95
2018-01-30T07:48:10.482Z,9.05
2018-01-30T07:50:38.140Z,11.43
2018-01-30T07:53:05.718Z,10.80
2018-01-30T07:55:33.310Z,9.65
2018-01-30T07:58:01.031Z,10.70
2018-01-30T08:00:28.599Z,10.07
2018-01-30T08:02:56.152Z,11.35
2018-01-30T08:05:23.804Z,8.73
2018-01-30T08:07:51.378Z,8.90
2018-01-30T08:10:19.035Z,10.65
2018-01-30T08:12:46.600Z,9.75
2018-01-30T08:15:14.106Z,10.90
2018-01-30T08:17:41.643Z,10.95
2018-01-30T08:20:09.382Z,9.73
2018-01-30T08:22:36.912Z,9.90
2018-01-30T08:25:05.184Z,10.27
2018-01-30T08:27:32.853Z,11.57
2018-01-30T08:30:00.434Z,10.98
2018-01-30T08:32:27.950Z,10.43
2018-01-30T08:34:56.376Z,12.30
2018-01-30T08:37:23.888Z,10.80
2018-01-30T08:39:51.537Z,9.55
2018-01-30T08:42:19.046Z,12.90
2018-01-30T08:44:46.804Z,11.95
2018-01-30T08:47:14.350Z,11.68
2018-01-30T08:49:42.044Z,10.43
2018-01-30T08:52:10.378Z,10.35
2018-01-30T08:54:37.883Z,11.20
2018-01-30T08:57:05.480Z,10.43
2018-01-30T08:59:33.155Z,9.57
2018-01-30T09:02:01.088Z,11.02
2018-01-30T09:04:28.730Z,11.15
2018-01-30T09:06:56.229Z,9.57
2018-01-30T09:09:24.557Z,9.18
2018-01-30T09:11:52.129Z,12.88
2018-01-30T09:14:19.655Z,11.12
2018-01-30T09:16:47.244Z,8.93
2018-01-30T09:19:14.780Z,11.12
2018-01-30T09:21:42.307Z,13.77
2018-01-30T09:24:09.896Z,11.25
2018-01-30T09:26:38.321Z,10.38
2018-01-30T09:29:05.832Z,11.18
2018-01-30T09:31:35.032Z,11.73
2018-01-30T09:34:02.713Z,11.23
2018-01-30T09:36:30.475Z,14.25
2018-01-30T09:38:58.006Z,14.55
2018-01-30T09:41:25.525Z,13.07
2018-01-30T09:43:53.165Z,14.57
2018-01-30T09:46:20.722Z,13.55
2018-01-30T09:48:48.455Z,13.73
2018-01-30T09:51:16.176Z,11.95
2018-01-30T09:53:43.724Z,12.50
2018-01-30T09:56:11.478Z,10.73
2018-01-30T09:58:38.999Z,13.07
2018-01-30T10:01:07.336Z,12.13
2018-01-30T10:03:34.930Z,11.40
2018-01-30T10:06:03.763Z,17.83
2018-01-30T10:08:31.325Z,11.98
2018-01-30T10:10:58.934Z,11.20
2018-01-30T10:13:26.460Z,13.88
2018-01-30T10:15:54.000Z,11.52
2018-01-30T10:18:21.683Z,11.60
2018-01-30T10:20:49.254Z,13.27
2018-01-30T10:23:16.715Z,11.85
2018-01-30T10:25:44.268Z,12.80
2018-01-30T10:28:11.867Z,13.48
2018-01-30T10:30:39.464Z,14.80
2018-01-30T10:33:07.099Z,9.90
2018-01-30T10:35:35.690Z,13.40
2018-01-30T10:38:03.183Z,11.68
2018-01-30T10:40:30.829Z,11.23
2018-01-30T10:42:58.506Z,11.45
2018-01-30T10:45:26.052Z,10.98
2018-01-30T10:47:53.678Z,12.25
2018-01-30T10:50:21.915Z,10.48
2018-01-30T10:52:49.478Z,10.80
2018-01-30T10:55:17.002Z,10.93
2018-01-30T10:57:44.578Z,9.93
2018-01-30T11:00:13.366Z,12.32
2018-01-30T11:02:41.021Z,12.27
2018-01-30T11:05:08.608Z,11.60
2018-01-30T11:07:36.943Z,11.30
2018-01-30T11:10:04.487Z,9.25
2018-01-30T11:12:32.828Z,14.15
2018-01-30T11:15:00.349Z,9.82
2018-01-30T11:17:27.919Z,11.82
2018-01-30T11:19:55.479Z,8.25
2018-01-30T11:22:23.068Z,11.63
2018-01-30T11:24:52.241Z,8.32
2018-01-30T11:27:20.058Z,10.00
2018-01-30T11:29:47.673Z,9.27
2018-01-30T11:32:15.440Z,10.30
2018-01-30T11:34:43.226Z,10.50
2018-01-30T11:37:10.762Z,10.00
2018-01-30T11:39:38.334Z,8.38
2018-01-30T11:42:06.052Z,9.82
2018-01-30T11:44:33.596Z,8.45
2018-01-30T11:47:01.979Z,11.80
2018-01-30T11:49:29.634Z,10.30
2018-01-30T11:51:57.145Z,9.48
2018-01-30T11:54:24.852Z,9.65
2018-01-30T11:56:53.213Z,8.65
2018-01-30T11:59:20.707Z,8.70
2018-01-30T12:01:48.217Z,8.75
2018-01-30T12:04:15.745Z,9.18
2018-01-30T12:06:43.309Z,10.18
2018-01-30T12:09:10.868Z,11.15
2018-01-30T12:11:38.390Z,10.65
2018-01-30T12:14:05.990Z,10.05
2018-01-30T12:16:33.519Z,11.15
2018-01-30T12:19:01.059Z,10.25
2018-01-30T12:21:29.373Z,9.13
2018-01-30T12:23:57.697Z,9.30
2018-01-30T12:26:25.374Z,6.78
2018-01-30T12:28:53.870Z,8.93
2018-01-30T12:31:21.356Z,7.37
2018-01-30T12:33:48.887Z,8.10
2018-01-30T12:36:17.349Z,8.65
2018-01-30T12:38:44.920Z,7.30
2018-01-30T12:41:12.486Z,5.95
2018-01-30T12:43:40.782Z,8.65
2018-01-30T12:46:08.351Z,8.25
2018-01-30T12:48:35.857Z,7.03
2018-01-30T12:51:03.901Z,6.75
2018-01-30T12:53:31.600Z,5.60
2018-01-30T12:55:59.505Z,3.72
2018-01-30T12:58:27.112Z,5.65
2018-01-30T13:00:54.627Z,5.72
2018-01-30T13:03:22.206Z,4.57
2018-01-30T13:05:49.728Z,6.18
2018-01-30T13:08:17.249Z,5.30
2018-01-30T13:10:45.481Z,4.90
2018-01-30T13:13:13.072Z,5.72
2018-01-30T13:15:40.917Z,7.53
2018-01-30T13:18:08.389Z,5.30
2018-01-30T13:20:35.903Z,4.97
2018-01-30T13:23:03.516Z,5.15
2018-01-30T13:25:31.223Z,5.20
2018-01-30T13:27:59.339Z,5.62
2018-01-30T13:30:26.794Z,5.90
2018-01-30T13:32:54.287Z,4.90
2018-01-30T13:35:23.215Z,5.78
2018-01-30T13:37:50.811Z,5.22
2018-01-30T13:40:18.560Z,6.05
2018-01-30T13:42:46.109Z,5.45
2018-01-30T13:45:14.146Z,5.40
2018-01-30T13:47:42.476Z,4.78
2018-01-30T13:50:10.059Z,5.90
2018-01-30T13:52:37.909Z,5.22
2018-01-30T13:55:05.472Z,5.45
2018-01-30T13:57:33.320Z,4.00
2018-01-30T14:00:00.906Z,5.93
2018-01-30T14:02:28.764Z,5.28
2018-01-30T14:04:56.541Z,5.03
2018-01-30T14:07:24.065Z,4.20
2018-01-30T14:09:51.633Z,4.90
2018-01-30T14:12:19.202Z,5.32
2018-01-30T14:14:46.846Z,4.90
2018-01-30T14:17:14.440Z,5.12
2018-01-30T14:19:42.131Z,4.95
2018-01-30T14:22:09.834Z,3.97
2018-01-30T14:24:38.141Z,5.15
2018-01-30T14:27:05.928Z,5.28
2018-01-30T14:29:33.539Z,5.07
2018-01-30T14:32:01.146Z,4.97
2018-01-30T14:34:28.721Z,4.65
2018-01-30T14:36:56.327Z,4.55
2018-01-30T14:39:23.936Z,4.18
2018-01-30T14:41:51.493Z,4.85
2018-01-30T14:44:19.264Z,5.18
2018-01-30T14:46:47.600Z,5.05
2018-01-30T14:49:15.190Z,5.28
2018-01-30T14:51:42.973Z,4.43
2018-01-30T14:54:10.683Z,5.93
2018-01-30T14:56:38.287Z,4.60
2018-01-30T14:59:05.849Z,5.37
2018-01-30T15:01:34.222Z,6.07
2018-01-30T15:04:01.766Z,4.25
2018-01-30T15:06:29.343Z,6.07
2018-01-30T15:08:56.891Z,4.57
2018-01-30T15:11:24.616Z,4.95
2018-01-30T15:13:52.240Z,4.05
2018-01-30T15:16:19.814Z,4.28
2018-01-30T15:18:47.366Z,4.25
2018-01-30T15:21:15.684Z,4.10
2018-01-30T15:23:43.222Z,4.55
2018-01-30T15:26:10.694Z,5.15
2018-01-30T15:28:38.249Z,4.53
2018-01-30T15:31:05.859Z,4.30
2018-01-30T15:33:34.225Z,3.70
2018-01-30T15:36:01.946Z,4.45
2018-01-30T15:38:29.530Z,4.57
2018-01-30T15:40:57.128Z,5.00
2018-01-30T15:43:25.464Z,5.50
2018-01-30T15:45:53.049Z,3.47
2018-01-30T15:48:20.572Z,4.62
2018-01-30T15:50:48.288Z,3.60
2018-01-30T15:53:17.436Z,4.50
2018-01-30T15:55:45.077Z,4.82
2018-01-30T15:58:12.652Z,5.12
2018-01-30T16:00:40.321Z,5.10
2018-01-30T16:03:07.822Z,3.75
2018-01-30T16:05:35.449Z,5.15
2018-01-30T16:08:03.002Z,6.32
2018-01-30T16:10:31.392Z,4.60
2018-01-30T16:12:58.960Z,4.15
2018-01-30T16:15:26.613Z,3.28
2018-01-30T16:17:54.153Z,4.50
2018-01-30T16:20:21.819Z,4.68
2018-01-30T16:22:49.479Z,4.30
2018-01-30T16:25:16.980Z,4.55
2018-01-30T16:27:44.541Z,4.40
2018-01-30T16:30:12.103Z,4.40
2018-01-30T16:32:40.255Z,3.90
2018-01-30T16:35:07.857Z,3.75
2018-01-30T16:37:35.389Z,3.90
2018-01-30T16:40:03.033Z,5.07
2018-01-30T16:42:31.550Z,5.75
2018-01-30T16:44:59.110Z,4.78
2018-01-30T16:47:27.438Z,5.72
2018-01-30T16:49:55.136Z,4.82
2018-01-30T16:52:22.663Z,4.87
2018-01-30T16:54:50.287Z,5.35
2018-01-30T16:57:17.922Z,5.53
2018-01-30T16:59:45.909Z,4.75
2018-01-30T17:02:13.534Z,3.90
2018-01-30T17:04:41.089Z,5.03
2018-01-30T17:07:08.643Z,5.55
2018-01-30T17:09:36.278Z,4.57
2018-01-30T17:12:03.930Z,5.55
2018-01-30T17:14:31.720Z,4.82
2018-01-30T17:16:59.287Z,3.80
2018-01-30T17:19:26.859Z,6.32
2018-01-30T17:21:54.402Z,3.42
2018-01-30T17:24:21.897Z,4.47
2018-01-30T17:26:49.538Z,6.53
2018-01-30T17:29:17.065Z,4.72
2018-01-30T17:31:44.953Z,5.62
2018-01-30T17:34:12.675Z,5.55
2018-01-30T17:36:41.015Z,3.78
2018-01-30T17:39:08.674Z,4.87
2018-01-30T17:41:36.243Z,4.90
2018-01-30T17:44:03.802Z,7.10
2018-01-30T17:46:31.571Z,3.60
2018-01-30T17:48:59.616Z,5.10
2018-01-30T17:51:27.145Z,7.57
2018-01-30T17:53:54.730Z,6.18
2018-01-30T17:56:22.308Z,4.65
2018-01-30T17:58:49.870Z,5.00
2018-01-30T18:01:17.480Z,5.15
2018-01-30T18:03:45.044Z,5.40
2018-01-30T18:06:12.601Z,5.90
2018-01-30T18:08:40.176Z,7.78
2018-01-30T18:11:07.836Z,4.45
2018-01-30T18:13:35.467Z,5.57
2018-01-30T18:16:03.818Z,6.15
2018-01-30T18:18:31.418Z,8.55
2018-01-30T18:20:59.832Z,5.55
2018-01-30T18:23:27.409Z,5.93
2018-01-30T18:25:55.936Z,7.10
2018-01-30T18:28:23.586Z,6.10
2018-01-30T18:30:51.116Z,7.72
2018-01-30T18:33:18.652Z,6.30
2018-01-30T18:35:46.205Z,6.30
2018-01-30T18:38:13.678Z,5.35
2018-01-30T18:40:41.204Z,6.20
2018-01-30T18:43:08.853Z,6.60
2018-01-30T18:45:37.187Z,6.22
2018-01-30T18:48:04.785Z,6.50
2018-01-30T18:50:32.427Z,7.15
2018-01-30T18:52:59.948Z,5.72
2018-01-30T18:55:27.533Z,7.20
2018-01-30T18:57:55.096Z,7.07
2018-01-30T19:00:22.677Z,9.90
2018-01-30T19:02:50.501Z,6.75
2018-01-30T19:05:18.038Z,6.20
2018-01-30T19:07:45.627Z,6.80
2018-01-30T19:10:13.231Z,6.72
2018-01-30T19:12:41.641Z,9.73
2018-01-30T19:15:09.243Z,6.20
2018-01-30T19:17:36.854Z,4.85
2018-01-30T19:20:04.400Z,6.00
2018-01-30T19:22:32.912Z,9.18
2018-01-30T19:25:00.549Z,6.87
2018-01-30T19:27:28.057Z,15.77
2018-01-30T19:29:55.577Z,8.10
2018-01-30T19:32:23.121Z,6.55
2018-01-30T19:34:51.594Z,7.40
2018-01-30T19:37:19.926Z,6.47
2018-01-30T19:39:47.502Z,7.22
2018-01-30T19:42:15.184Z,7.60
2018-01-30T19:44:43.577Z,7.30
2018-01-30T19:47:11.211Z,12.80
2018-01-30T19:49:38.939Z,5.70
2018-01-30T19:52:06.609Z,6.43
2018-01-30T19:54:34.157Z,7.45
2018-01-30T19:57:01.735Z,8.57
2018-01-30T19:59:29.203Z,8.48
2018-01-30T20:01:56.643Z,8.50
2018-01-30T20:04:24.204Z,6.80
2018-01-30T20:06:51.968Z,5.60
2018-01-30T20:09:19.541Z,5.60
2018-01-30T20:11:47.105Z,7.40
2018-01-30T20:14:14.671Z,7.85
2018-01-30T20:16:42.145Z,5.72
2018-01-30T20:19:09.733Z,7.57
2018-01-30T20:21:37.259Z,8.10
2018-01-30T20:24:04.864Z,7.80
2018-01-30T20:26:38.179Z,6.32
2018-01-30T20:29:06.048Z,6.55
2018-01-30T20:31:33.557Z,5.90
2018-01-30T20:34:01.937Z,4.80
2018-01-30T20:36:29.539Z,6.95
2018-01-30T20:38:57.083Z,6.07
2018-01-30T20:41:24.675Z,7.25
2018-01-30T20:43:52.198Z,6.75
2018-01-30T20:46:19.705Z,7.50
2018-01-30T20:48:47.274Z,7.10
2018-01-30T20:51:16.296Z,6.57
2018-01-30T20:53:44.645Z,7.12
2018-01-30T20:56:12.340Z,7.97
2018-01-30T20:58:39.981Z,7.10
2018-01-30T21:01:07.566Z,6.43
2018-01-30T21:03:35.161Z,7.55
2018-01-30T21:06:02.677Z,7.80
2018-01-30T21:08:30.940Z,8.00
2018-01-30T21:10:58.429Z,9.73
2018-01-30T21:13:25.904Z,7.75
2018-01-30T21:15:53.444Z,8.25
2018-01-30T21:18:20.940Z,7.15
2018-01-30T21:20:48.513Z,7.97
2018-01-30T21:23:16.201Z,7.95
2018-01-30T21:25:44.590Z,7.15
2018-01-30T21:28:12.131Z,7.93
2018-01-30T21:30:40.360Z,8.88
2018-01-30T21:33:07.950Z,7.93
2018-01-30T21:35:35.553Z,10.50
2018-01-30T21:38:03.182Z,7.18
2018-01-30T21:40:30.740Z,10.27
2018-01-30T21:42:59.481Z,7.65
2018-01-30T21:45:27.090Z,8.07
2018-01-30T21:47:54.637Z,7.45
2018-01-30T21:50:22.157Z,7.55
2018-01-30T21:52:49.766Z,8.32
2018-01-30T21:55:18.397Z,8.18
2018-01-30T21:57:45.930Z,9.32
2018-01-30T22:00:13.536Z,8.25
2018-01-30T22:02:41.010Z,9.85
2018-01-30T22:05:08.651Z,8.38
2018-01-30T22:07:36.128Z,10.50
2018-01-30T22:10:03.734Z,7.65
2018-01-30T22:12:32.093Z,9.00
2018-01-30T22:14:59.695Z,9.25
2018-01-30T22:17:27.210Z,6.53
2018-01-30T22:19:54.811Z,6.80
2018-01-30T22:22:22.486Z,9.98
2018-01-30T22:24:50.001Z,7.43
2018-01-30T22:27:17.549Z,7.10
2018-01-30T22:29:45.061Z,6.12
2018-01-30T22:32:12.701Z,9.38
2018-01-30T22:34:41.082Z,8.15
2018-01-30T22:37:08.612Z,6.53
2018-01-30T22:39:36.178Z,7.05
2018-01-30T22:42:03.804Z,6.93
2018-01-30T22:44:31.549Z,11.23
2018-01-30T22:46:59.055Z,6.87
